sensor_id;sensor_type;location;lat;lon;timestamp;P1;durP1;ratioP1;P2;durP2;ratioP2
6864;SDS011;3471;49.678;8.388;2024-03-02T00:00:50;10.03;;;8.50;;
6864;SDS011;3471;49.678;8.388;2024-03-02T00:03:17;18.48;;;8.73;;
6864;SDS011;3471;49.678;8.388;2024-03-02T00:05:43;11.17;;;9.50;;
6864;SDS011;3471;49.678;8.388;2024-03-02T00:08:09;12.57;;;10.20;;
6864;SDS011;3471;49.678;8.388;2024-03-02T00:10:38;11.02;;;9.85;;
6864;SDS011;3471;49.678;8.388;2024-03-02T00:13:04;10.10;;;8.43;;
6864;SDS011;3471;49.678;8.388;2024-03-02T00:18:12;9.23;;;8.30;;
6864;SDS011;3471;49.678;8.388;2024-03-02T00:20:43;14.55;;;9.68;;
6864;SDS011;3471;49.678;8.388;2024-03-02T00:23:09;14.15;;;9.77;;
6864;SDS011;3471;49.678;8.388;2024-03-02T00:25:38;15.63;;;11.03;;
6864;SDS011;3471;49.678;8.388;2024-03-02T00:28:14;11.10;;;9.95;;
6864;SDS011;3471;49.678;8.388;2024-03-02T00:33:09;15.10;;;9.60;;
6864;SDS011;3471;49.678;8.388;2024-03-02T00:35:35;9.75;;;8.75;;
6864;SDS011;3471;49.678;8.388;2024-03-02T00:38:04;10.88;;;8.57;;
6864;SDS011;3471;49.678;8.388;2024-03-02T00:40:31;9.17;;;8.17;;
6864;SDS011;3471;49.678;8.388;2024-03-02T00:42:56;12.15;;;10.85;;
6864;SDS011;3471;49.678;8.388;2024-03-02T00:45:22;11.32;;;9.60;;
6864;SDS011;3471;49.678;8.388;2024-03-02T00:47:49;10.20;;;9.30;;
6864;SDS011;3471;49.678;8.388;2024-03-02T00:50:16;11.32;;;10.07;;
6864;SDS011;3471;49.678;8.388;2024-03-02T00:52:41;13.20;;;8.07;;
6864;SDS011;3471;49.678;8.388;2024-03-02T00:55:07;14.48;;;11.10;;
6864;SDS011;3471;49.678;8.388;2024-03-02T00:57:33;11.90;;;10.70;;
6864;SDS011;3471;49.678;8.388;2024-03-02T00:59:59;11.82;;;10.50;;
6864;SDS011;3471;49.678;8.388;2024-03-02T01:02:25;10.80;;;9.80;;
6864;SDS011;3471;49.678;8.388;2024-03-02T01:04:51;12.80;;;11.50;;
6864;SDS011;3471;49.678;8.388;2024-03-02T01:07:17;15.73;;;12.13;;
6864;SDS011;3471;49.678;8.388;2024-03-02T01:09:42;15.93;;;9.70;;
6864;SDS011;3471;49.678;8.388;2024-03-02T01:12:08;15.73;;;10.35;;
6864;SDS011;3471;49.678;8.388;2024-03-02T01:14:34;25.37;;;9.90;;
6864;SDS011;3471;49.678;8.388;2024-03-02T01:17:00;11.15;;;9.30;;
6864;SDS011;3471;49.678;8.388;2024-03-02T01:19:28;18.88;;;9.30;;
6864;SDS011;3471;49.678;8.388;2024-03-02T01:21:54;8.47;;;7.33;;
6864;SDS011;3471;49.678;8.388;2024-03-02T01:24:19;8.70;;;6.95;;
6864;SDS011;3471;49.678;8.388;2024-03-02T01:26:45;9.63;;;8.63;;
6864;SDS011;3471;49.678;8.388;2024-03-02T01:29:10;9.70;;;8.70;;
6864;SDS011;3471;49.678;8.388;2024-03-02T01:31:36;11.02;;;9.90;;
6864;SDS011;3471;49.678;8.388;2024-03-02T01:34:02;12.27;;;10.67;;
6864;SDS011;3471;49.678;8.388;2024-03-02T01:36:27;16.13;;;10.07;;
6864;SDS011;3471;49.678;8.388;2024-03-02T01:38:53;11.20;;;9.77;;
6864;SDS011;3471;49.678;8.388;2024-03-02T01:41:18;10.00;;;9.00;;
6864;SDS011;3471;49.678;8.388;2024-03-02T01:43:44;12.97;;;11.80;;
6864;SDS011;3471;49.678;8.388;2024-03-02T01:46:09;20.33;;;11.37;;
6864;SDS011;3471;49.678;8.388;2024-03-02T01:48:35;12.68;;;11.40;;
6864;SDS011;3471;49.678;8.388;2024-03-02T01:51:00;15.20;;;11.80;;
6864;SDS011;3471;49.678;8.388;2024-03-02T01:53:26;18.30;;;13.73;;
6864;SDS011;3471;49.678;8.388;2024-03-02T01:55:53;19.75;;;13.30;;
6864;SDS011;3471;49.678;8.388;2024-03-02T01:58:18;14.10;;;12.70;;
6864;SDS011;3471;49.678;8.388;2024-03-02T02:00:44;16.00;;;13.33;;
6864;SDS011;3471;49.678;8.388;2024-03-02T02:03:10;15.63;;;13.57;;
6864;SDS011;3471;49.678;8.388;2024-03-02T02:05:36;14.90;;;13.48;;
6864;SDS011;3471;49.678;8.388;2024-03-02T02:08:02;13.68;;;12.27;;
6864;SDS011;3471;49.678;8.388;2024-03-02T02:10:28;16.23;;;13.93;;
6864;SDS011;3471;49.678;8.388;2024-03-02T02:12:53;13.60;;;12.00;;
6864;SDS011;3471;49.678;8.388;2024-03-02T02:15:26;15.43;;;12.43;;
6864;SDS011;3471;49.678;8.388;2024-03-02T02:17:53;18.75;;;13.15;;
6864;SDS011;3471;49.678;8.388;2024-03-02T02:20:19;15.10;;;10.30;;
6864;SDS011;3471;49.678;8.388;2024-03-02T02:22:55;16.13;;;14.55;;
6864;SDS011;3471;49.678;8.388;2024-03-02T02:25:20;14.88;;;13.38;;
6864;SDS011;3471;49.678;8.388;2024-03-02T02:27:46;22.90;;;14.25;;
6864;SDS011;3471;49.678;8.388;2024-03-02T02:30:12;13.95;;;12.48;;
6864;SDS011;3471;49.678;8.388;2024-03-02T02:32:37;15.55;;;13.93;;
6864;SDS011;3471;49.678;8.388;2024-03-02T02:35:03;14.57;;;11.80;;
6864;SDS011;3471;49.678;8.388;2024-03-02T02:37:29;13.80;;;10.38;;
6864;SDS011;3471;49.678;8.388;2024-03-02T02:39:55;14.87;;;11.80;;
6864;SDS011;3471;49.678;8.388;2024-03-02T02:42:20;13.57;;;12.23;;
6864;SDS011;3471;49.678;8.388;2024-03-02T02:44:46;17.20;;;13.02;;
6864;SDS011;3471;49.678;8.388;2024-03-02T02:47:11;15.40;;;13.07;;
6864;SDS011;3471;49.678;8.388;2024-03-02T02:49:37;13.48;;;11.65;;
6864;SDS011;3471;49.678;8.388;2024-03-02T02:52:03;16.87;;;13.00;;
6864;SDS011;3471;49.678;8.388;2024-03-02T02:54:28;28.00;;;15.85;;
6864;SDS011;3471;49.678;8.388;2024-03-02T02:56:54;14.40;;;12.90;;
6864;SDS011;3471;49.678;8.388;2024-03-02T02:59:19;25.03;;;14.67;;
6864;SDS011;3471;49.678;8.388;2024-03-02T03:01:45;15.88;;;12.77;;
6864;SDS011;3471;49.678;8.388;2024-03-02T03:04:10;14.13;;;11.70;;
6864;SDS011;3471;49.678;8.388;2024-03-02T03:06:36;15.18;;;13.63;;
6864;SDS011;3471;49.678;8.388;2024-03-02T03:09:01;17.57;;;11.20;;
6864;SDS011;3471;49.678;8.388;2024-03-02T03:11:27;10.83;;;9.77;;
6864;SDS011;3471;49.678;8.388;2024-03-02T03:13:53;10.77;;;9.68;;
6864;SDS011;3471;49.678;8.388;2024-03-02T03:16:19;11.87;;;10.60;;
6864;SDS011;3471;49.678;8.388;2024-03-02T03:18:45;13.25;;;9.50;;
6864;SDS011;3471;49.678;8.388;2024-03-02T03:21:10;13.27;;;8.77;;
6864;SDS011;3471;49.678;8.388;2024-03-02T03:23:36;15.27;;;11.48;;
6864;SDS011;3471;49.678;8.388;2024-03-02T03:26:01;10.47;;;9.40;;
6864;SDS011;3471;49.678;8.388;2024-03-02T03:28:28;11.30;;;10.20;;
6864;SDS011;3471;49.678;8.388;2024-03-02T03:30:53;10.80;;;9.70;;
6864;SDS011;3471;49.678;8.388;2024-03-02T03:33:19;10.87;;;9.57;;
6864;SDS011;3471;49.678;8.388;2024-03-02T03:35:44;16.10;;;11.68;;
6864;SDS011;3471;49.678;8.388;2024-03-02T03:38:10;15.10;;;9.33;;
6864;SDS011;3471;49.678;8.388;2024-03-02T03:40:35;14.55;;;12.52;;
6864;SDS011;3471;49.678;8.388;2024-03-02T03:43:02;13.40;;;12.10;;
6864;SDS011;3471;49.678;8.388;2024-03-02T03:45:27;16.13;;;12.33;;
6864;SDS011;3471;49.678;8.388;2024-03-02T03:47:53;22.20;;;17.13;;
6864;SDS011;3471;49.678;8.388;2024-03-02T03:50:19;12.63;;;10.02;;
6864;SDS011;3471;49.678;8.388;2024-03-02T03:52:45;14.85;;;11.45;;
6864;SDS011;3471;49.678;8.388;2024-03-02T03:55:10;12.90;;;10.83;;
6864;SDS011;3471;49.678;8.388;2024-03-02T03:57:36;16.92;;;12.88;;
6864;SDS011;3471;49.678;8.388;2024-03-02T04:00:02;17.83;;;15.33;;
6864;SDS011;3471;49.678;8.388;2024-03-02T04:02:28;20.03;;;14.83;;
6864;SDS011;3471;49.678;8.388;2024-03-02T04:04:54;19.48;;;14.30;;
6864;SDS011;3471;49.678;8.388;2024-03-02T04:07:19;18.30;;;13.77;;
6864;SDS011;3471;49.678;8.388;2024-03-02T04:09:45;21.48;;;15.35;;
6864;SDS011;3471;49.678;8.388;2024-03-02T04:12:10;15.93;;;12.00;;
6864;SDS011;3471;49.678;8.388;2024-03-02T04:14:38;13.33;;;12.03;;
6864;SDS011;3471;49.678;8.388;2024-03-02T04:17:03;13.88;;;11.85;;
6864;SDS011;3471;49.678;8.388;2024-03-02T04:19:29;12.33;;;11.23;;
6864;SDS011;3471;49.678;8.388;2024-03-02T04:21:54;14.75;;;11.85;;
6864;SDS011;3471;49.678;8.388;2024-03-02T04:24:20;16.80;;;11.57;;
6864;SDS011;3471;49.678;8.388;2024-03-02T04:26:45;13.80;;;10.75;;
6864;SDS011;3471;49.678;8.388;2024-03-02T04:29:11;11.83;;;10.70;;
6864;SDS011;3471;49.678;8.388;2024-03-02T04:31:36;12.97;;;10.80;;
6864;SDS011;3471;49.678;8.388;2024-03-02T04:34:02;12.45;;;11.25;;
6864;SDS011;3471;49.678;8.388;2024-03-02T04:36:27;11.37;;;10.27;;
6864;SDS011;3471;49.678;8.388;2024-03-02T04:38:53;13.27;;;10.43;;
6864;SDS011;3471;49.678;8.388;2024-03-02T04:41:19;18.57;;;10.83;;
6864;SDS011;3471;49.678;8.388;2024-03-02T04:43:44;16.35;;;12.98;;
6864;SDS011;3471;49.678;8.388;2024-03-02T04:46:10;19.63;;;13.73;;
6864;SDS011;3471;49.678;8.388;2024-03-02T04:48:35;15.32;;;12.13;;
6864;SDS011;3471;49.678;8.388;2024-03-02T04:51:01;18.50;;;13.30;;
6864;SDS011;3471;49.678;8.388;2024-03-02T04:53:27;18.58;;;13.57;;
6864;SDS011;3471;49.678;8.388;2024-03-02T04:55:52;15.97;;;14.37;;
6864;SDS011;3471;49.678;8.388;2024-03-02T04:58:20;23.73;;;14.53;;
6864;SDS011;3471;49.678;8.388;2024-03-02T05:00:46;16.83;;;12.97;;
6864;SDS011;3471;49.678;8.388;2024-03-02T05:03:12;14.00;;;11.50;;
6864;SDS011;3471;49.678;8.388;2024-03-02T05:05:38;11.68;;;10.57;;
6864;SDS011;3471;49.678;8.388;2024-03-02T05:08:04;15.17;;;12.90;;
6864;SDS011;3471;49.678;8.388;2024-03-02T05:10:30;10.70;;;9.68;;
6864;SDS011;3471;49.678;8.388;2024-03-02T05:12:55;12.88;;;11.57;;
6864;SDS011;3471;49.678;8.388;2024-03-02T05:15:24;20.07;;;12.77;;
6864;SDS011;3471;49.678;8.388;2024-03-02T05:17:50;17.00;;;12.68;;
6864;SDS011;3471;49.678;8.388;2024-03-02T05:20:16;13.02;;;10.18;;
6864;SDS011;3471;49.678;8.388;2024-03-02T05:22:42;14.63;;;11.63;;
6864;SDS011;3471;49.678;8.388;2024-03-02T05:25:07;12.93;;;11.40;;
6864;SDS011;3471;49.678;8.388;2024-03-02T05:27:34;12.43;;;11.13;;
6864;SDS011;3471;49.678;8.388;2024-03-02T05:30:00;12.80;;;11.38;;
6864;SDS011;3471;49.678;8.388;2024-03-02T05:32:26;12.60;;;11.35;;
6864;SDS011;3471;49.678;8.388;2024-03-02T05:34:52;14.48;;;10.63;;
6864;SDS011;3471;49.678;8.388;2024-03-02T05:37:17;17.83;;;12.37;;
6864;SDS011;3471;49.678;8.388;2024-03-02T05:39:43;14.60;;;13.07;;
6864;SDS011;3471;49.678;8.388;2024-03-02T05:42:09;17.20;;;14.00;;
6864;SDS011;3471;49.678;8.388;2024-03-02T05:44:37;13.30;;;11.38;;
6864;SDS011;3471;49.678;8.388;2024-03-02T05:47:03;14.43;;;12.95;;
6864;SDS011;3471;49.678;8.388;2024-03-02T05:49:29;12.98;;;11.07;;
6864;SDS011;3471;49.678;8.388;2024-03-02T05:51:54;18.57;;;11.17;;
6864;SDS011;3471;49.678;8.388;2024-03-02T05:54:20;12.05;;;10.95;;
6864;SDS011;3471;49.678;8.388;2024-03-02T05:56:46;17.63;;;13.43;;
6864;SDS011;3471;49.678;8.388;2024-03-02T05:59:11;16.50;;;13.38;;
6864;SDS011;3471;49.678;8.388;2024-03-02T06:01:45;14.27;;;12.25;;
6864;SDS011;3471;49.678;8.388;2024-03-02T06:04:12;15.15;;;13.65;;
6864;SDS011;3471;49.678;8.388;2024-03-02T06:06:38;24.38;;;15.05;;
6864;SDS011;3471;49.678;8.388;2024-03-02T06:09:04;20.23;;;12.07;;
6864;SDS011;3471;49.678;8.388;2024-03-02T06:11:32;15.05;;;12.38;;
6864;SDS011;3471;49.678;8.388;2024-03-02T06:14:01;16.50;;;10.98;;
6864;SDS011;3471;49.678;8.388;2024-03-02T06:16:27;13.02;;;10.90;;
6864;SDS011;3471;49.678;8.388;2024-03-02T06:18:53;16.83;;;15.03;;
6864;SDS011;3471;49.678;8.388;2024-03-02T06:21:19;15.80;;;11.30;;
6864;SDS011;3471;49.678;8.388;2024-03-02T06:23:45;12.40;;;10.32;;
6864;SDS011;3471;49.678;8.388;2024-03-02T06:26:10;13.60;;;10.95;;
6864;SDS011;3471;49.678;8.388;2024-03-02T06:28:37;14.95;;;11.90;;
6864;SDS011;3471;49.678;8.388;2024-03-02T06:31:03;13.75;;;12.30;;
6864;SDS011;3471;49.678;8.388;2024-03-02T06:33:29;12.47;;;11.17;;
6864;SDS011;3471;49.678;8.388;2024-03-02T06:35:54;16.73;;;12.80;;
6864;SDS011;3471;49.678;8.388;2024-03-02T06:38:20;14.23;;;11.37;;
6864;SDS011;3471;49.678;8.388;2024-03-02T06:40:45;23.70;;;14.07;;
6864;SDS011;3471;49.678;8.388;2024-03-02T06:43:11;15.15;;;13.43;;
6864;SDS011;3471;49.678;8.388;2024-03-02T06:45:36;16.53;;;10.63;;
6864;SDS011;3471;49.678;8.388;2024-03-02T06:48:02;17.48;;;14.07;;
6864;SDS011;3471;49.678;8.388;2024-03-02T06:50:28;20.80;;;14.52;;
6864;SDS011;3471;49.678;8.388;2024-03-02T06:52:54;12.80;;;11.50;;
6864;SDS011;3471;49.678;8.388;2024-03-02T06:55:21;15.75;;;14.10;;
6864;SDS011;3471;49.678;8.388;2024-03-02T06:57:47;17.80;;;13.52;;
6864;SDS011;3471;49.678;8.388;2024-03-02T07:00:12;17.90;;;13.50;;
6864;SDS011;3471;49.678;8.388;2024-03-02T07:02:38;20.15;;;16.25;;
6864;SDS011;3471;49.678;8.388;2024-03-02T07:05:06;22.30;;;18.00;;
6864;SDS011;3471;49.678;8.388;2024-03-02T07:07:33;21.90;;;17.35;;
6864;SDS011;3471;49.678;8.388;2024-03-02T07:09:59;17.67;;;12.25;;
6864;SDS011;3471;49.678;8.388;2024-03-02T07:12:25;21.17;;;16.15;;
6864;SDS011;3471;49.678;8.388;2024-03-02T07:14:51;18.63;;;14.33;;
6864;SDS011;3471;49.678;8.388;2024-03-02T07:17:29;23.35;;;16.10;;
6864;SDS011;3471;49.678;8.388;2024-03-02T07:19:57;20.35;;;14.95;;
6864;SDS011;3471;49.678;8.388;2024-03-02T07:22:23;34.05;;;19.02;;
6864;SDS011;3471;49.678;8.388;2024-03-02T07:24:49;42.35;;;26.42;;
6864;SDS011;3471;49.678;8.388;2024-03-02T07:27:15;28.00;;;18.10;;
6864;SDS011;3471;49.678;8.388;2024-03-02T07:29:42;21.88;;;17.88;;
6864;SDS011;3471;49.678;8.388;2024-03-02T07:32:08;23.17;;;19.40;;
6864;SDS011;3471;49.678;8.388;2024-03-02T07:34:35;37.05;;;27.80;;
6864;SDS011;3471;49.678;8.388;2024-03-02T07:37:02;30.65;;;21.77;;
6864;SDS011;3471;49.678;8.388;2024-03-02T07:39:28;26.83;;;20.77;;
6864;SDS011;3471;49.678;8.388;2024-03-02T07:41:54;24.52;;;21.98;;
6864;SDS011;3471;49.678;8.388;2024-03-02T07:44:20;27.63;;;19.80;;
6864;SDS011;3471;49.678;8.388;2024-03-02T07:46:46;29.65;;;19.45;;
6864;SDS011;3471;49.678;8.388;2024-03-02T07:49:12;27.92;;;19.90;;
6864;SDS011;3471;49.678;8.388;2024-03-02T07:51:39;29.25;;;20.95;;
6864;SDS011;3471;49.678;8.388;2024-03-02T07:54:04;22.55;;;17.27;;
6864;SDS011;3471;49.678;8.388;2024-03-02T07:56:30;24.92;;;18.02;;
6864;SDS011;3471;49.678;8.388;2024-03-02T07:58:56;31.03;;;19.50;;
6864;SDS011;3471;49.678;8.388;2024-03-02T08:01:26;23.40;;;17.97;;
6864;SDS011;3471;49.678;8.388;2024-03-02T08:04:01;28.00;;;20.30;;
6864;SDS011;3471;49.678;8.388;2024-03-02T08:06:28;21.05;;;15.52;;
6864;SDS011;3471;49.678;8.388;2024-03-02T08:08:55;32.35;;;19.30;;
6864;SDS011;3471;49.678;8.388;2024-03-02T08:11:21;18.67;;;15.98;;
6864;SDS011;3471;49.678;8.388;2024-03-02T08:13:48;16.60;;;14.75;;
6864;SDS011;3471;49.678;8.388;2024-03-02T08:16:14;19.05;;;15.50;;
6864;SDS011;3471;49.678;8.388;2024-03-02T08:18:41;18.92;;;14.68;;
6864;SDS011;3471;49.678;8.388;2024-03-02T08:21:07;15.90;;;14.10;;
6864;SDS011;3471;49.678;8.388;2024-03-02T08:23:33;17.70;;;14.60;;
6864;SDS011;3471;49.678;8.388;2024-03-02T08:25:59;21.17;;;15.65;;
6864;SDS011;3471;49.678;8.388;2024-03-02T08:28:25;21.25;;;14.75;;
6864;SDS011;3471;49.678;8.388;2024-03-02T08:30:50;20.10;;;15.05;;
6864;SDS011;3471;49.678;8.388;2024-03-02T08:33:16;23.03;;;15.47;;
6864;SDS011;3471;49.678;8.388;2024-03-02T08:35:42;17.85;;;14.27;;
6864;SDS011;3471;49.678;8.388;2024-03-02T08:38:07;17.10;;;13.93;;
6864;SDS011;3471;49.678;8.388;2024-03-02T08:40:33;17.98;;;13.00;;
6864;SDS011;3471;49.678;8.388;2024-03-02T08:42:59;18.47;;;13.20;;
6864;SDS011;3471;49.678;8.388;2024-03-02T08:45:25;15.82;;;12.93;;
6864;SDS011;3471;49.678;8.388;2024-03-02T08:47:50;22.67;;;15.80;;
6864;SDS011;3471;49.678;8.388;2024-03-02T08:50:16;21.57;;;15.80;;
6864;SDS011;3471;49.678;8.388;2024-03-02T08:52:41;22.67;;;13.85;;
6864;SDS011;3471;49.678;8.388;2024-03-02T08:55:08;19.23;;;14.05;;
6864;SDS011;3471;49.678;8.388;2024-03-02T08:57:33;14.90;;;13.30;;
6864;SDS011;3471;49.678;8.388;2024-03-02T08:59:59;17.48;;;13.68;;
6864;SDS011;3471;49.678;8.388;2024-03-02T09:02:25;18.00;;;14.37;;
6864;SDS011;3471;49.678;8.388;2024-03-02T09:04:51;17.13;;;13.85;;
6864;SDS011;3471;49.678;8.388;2024-03-02T09:07:17;25.80;;;14.17;;
6864;SDS011;3471;49.678;8.388;2024-03-02T09:09:42;14.70;;;12.40;;
6864;SDS011;3471;49.678;8.388;2024-03-02T09:12:08;19.33;;;14.57;;
6864;SDS011;3471;49.678;8.388;2024-03-02T09:14:34;14.40;;;12.90;;
6864;SDS011;3471;49.678;8.388;2024-03-02T09:17:01;17.55;;;11.82;;
6864;SDS011;3471;49.678;8.388;2024-03-02T09:19:28;14.15;;;12.52;;
6864;SDS011;3471;49.678;8.388;2024-03-02T09:21:54;13.98;;;10.40;;
6864;SDS011;3471;49.678;8.388;2024-03-02T09:24:20;17.23;;;12.55;;
6864;SDS011;3471;49.678;8.388;2024-03-02T09:26:46;14.15;;;10.68;;
6864;SDS011;3471;49.678;8.388;2024-03-02T09:29:12;13.33;;;11.73;;
6864;SDS011;3471;49.678;8.388;2024-03-02T09:31:41;14.85;;;11.45;;
6864;SDS011;3471;49.678;8.388;2024-03-02T09:34:07;15.38;;;12.60;;
6864;SDS011;3471;49.678;8.388;2024-03-02T09:36:32;14.30;;;10.00;;
6864;SDS011;3471;49.678;8.388;2024-03-02T09:38:58;14.13;;;11.70;;
6864;SDS011;3471;49.678;8.388;2024-03-02T09:41:24;13.27;;;9.77;;
6864;SDS011;3471;49.678;8.388;2024-03-02T09:43:49;12.27;;;10.98;;
6864;SDS011;3471;49.678;8.388;2024-03-02T09:46:15;14.50;;;11.00;;
6864;SDS011;3471;49.678;8.388;2024-03-02T09:48:41;13.15;;;9.90;;
6864;SDS011;3471;49.678;8.388;2024-03-02T09:51:08;11.30;;;9.75;;
6864;SDS011;3471;49.678;8.388;2024-03-02T09:53:35;11.80;;;10.60;;
6864;SDS011;3471;49.678;8.388;2024-03-02T09:56:01;11.80;;;8.73;;
6864;SDS011;3471;49.678;8.388;2024-03-02T09:58:27;11.85;;;9.93;;
6864;SDS011;3471;49.678;8.388;2024-03-02T10:00:52;11.23;;;8.80;;
6864;SDS011;3471;49.678;8.388;2024-03-02T10:03:18;9.60;;;7.00;;
6864;SDS011;3471;49.678;8.388;2024-03-02T10:05:46;11.47;;;7.70;;
6864;SDS011;3471;49.678;8.388;2024-03-02T10:08:11;9.40;;;8.35;;
6864;SDS011;3471;49.678;8.388;2024-03-02T10:10:40;9.30;;;7.28;;
6864;SDS011;3471;49.678;8.388;2024-03-02T10:13:08;15.52;;;8.10;;
6864;SDS011;3471;49.678;8.388;2024-03-02T10:15:35;10.98;;;9.18;;
6864;SDS011;3471;49.678;8.388;2024-03-02T10:18:02;10.07;;;8.90;;
6864;SDS011;3471;49.678;8.388;2024-03-02T10:20:38;11.95;;;10.85;;
6864;SDS011;3471;49.678;8.388;2024-03-02T10:23:15;14.90;;;11.32;;
6864;SDS011;3471;49.678;8.388;2024-03-02T10:25:41;15.30;;;9.32;;
6864;SDS011;3471;49.678;8.388;2024-03-02T10:28:08;23.33;;;11.70;;
6864;SDS011;3471;49.678;8.388;2024-03-02T10:30:34;14.35;;;10.98;;
6864;SDS011;3471;49.678;8.388;2024-03-02T10:33:00;18.20;;;11.05;;
6864;SDS011;3471;49.678;8.388;2024-03-02T10:35:27;15.00;;;10.00;;
6864;SDS011;3471;49.678;8.388;2024-03-02T10:37:53;10.87;;;9.83;;
6864;SDS011;3471;49.678;8.388;2024-03-02T10:40:22;10.50;;;8.38;;
6864;SDS011;3471;49.678;8.388;2024-03-02T10:42:48;10.85;;;9.75;;
6864;SDS011;3471;49.678;8.388;2024-03-02T10:45:15;9.65;;;8.50;;
6864;SDS011;3471;49.678;8.388;2024-03-02T10:47:42;11.93;;;7.85;;
6864;SDS011;3471;49.678;8.388;2024-03-02T10:50:09;11.20;;;8.23;;
6864;SDS011;3471;49.678;8.388;2024-03-02T10:52:35;9.15;;;6.80;;
6864;SDS011;3471;49.678;8.388;2024-03-02T10:55:02;9.45;;;7.32;;
6864;SDS011;3471;49.678;8.388;2024-03-02T10:57:33;8.50;;;6.90;;
6864;SDS011;3471;49.678;8.388;2024-03-02T11:00:07;6.82;;;6.18;;
6864;SDS011;3471;49.678;8.388;2024-03-02T11:02:40;11.70;;;7.05;;
6864;SDS011;3471;49.678;8.388;2024-03-02T11:05:09;6.47;;;5.82;;
6864;SDS011;3471;49.678;8.388;2024-03-02T11:07:37;8.80;;;6.80;;
6864;SDS011;3471;49.678;8.388;2024-03-02T11:10:04;6.13;;;4.97;;
6864;SDS011;3471;49.678;8.388;2024-03-02T11:12:36;4.95;;;4.45;;
6864;SDS011;3471;49.678;8.388;2024-03-02T11:15:11;5.85;;;5.03;;
6864;SDS011;3471;49.678;8.388;2024-03-02T11:17:44;9.63;;;6.13;;
6864;SDS011;3471;49.678;8.388;2024-03-02T11:20:10;5.32;;;4.65;;
6864;SDS011;3471;49.678;8.388;2024-03-02T11:22:36;6.63;;;6.03;;
6864;SDS011;3471;49.678;8.388;2024-03-02T11:25:03;8.45;;;6.32;;
6864;SDS011;3471;49.678;8.388;2024-03-02T11:32:59;6.83;;;5.60;;
6864;SDS011;3471;49.678;8.388;2024-03-02T11:35:25;4.25;;;3.85;;
6864;SDS011;3471;49.678;8.388;2024-03-02T11:37:51;8.40;;;5.37;;
6864;SDS011;3471;49.678;8.388;2024-03-02T11:40:27;7.60;;;5.55;;
6864;SDS011;3471;49.678;8.388;2024-03-02T11:42:53;7.97;;;5.07;;
6864;SDS011;3471;49.678;8.388;2024-03-02T11:45:22;8.93;;;6.32;;
6864;SDS011;3471;49.678;8.388;2024-03-02T11:47:53;5.45;;;4.90;;
6864;SDS011;3471;49.678;8.388;2024-03-02T11:50:28;7.97;;;6.43;;
6864;SDS011;3471;49.678;8.388;2024-03-02T11:52:55;8.68;;;5.47;;
6864;SDS011;3471;49.678;8.388;2024-03-02T11:55:22;5.60;;;4.50;;
6864;SDS011;3471;49.678;8.388;2024-03-02T11:57:50;6.72;;;4.70;;
6864;SDS011;3471;49.678;8.388;2024-03-02T12:00:17;3.80;;;3.28;;
6864;SDS011;3471;49.678;8.388;2024-03-02T12:02:47;6.38;;;4.25;;
6864;SDS011;3471;49.678;8.388;2024-03-02T12:05:24;4.97;;;4.57;;
6864;SDS011;3471;49.678;8.388;2024-03-02T12:07:55;3.90;;;3.50;;
6864;SDS011;3471;49.678;8.388;2024-03-02T12:10:21;3.90;;;3.15;;
6864;SDS011;3471;49.678;8.388;2024-03-02T12:12:47;4.88;;;3.83;;
6864;SDS011;3471;49.678;8.388;2024-03-02T12:15:12;8.25;;;3.90;;
6864;SDS011;3471;49.678;8.388;2024-03-02T12:17:38;5.30;;;4.00;;
6864;SDS011;3471;49.678;8.388;2024-03-02T12:20:04;5.93;;;3.47;;
6864;SDS011;3471;49.678;8.388;2024-03-02T12:22:32;6.88;;;4.50;;
6864;SDS011;3471;49.678;8.388;2024-03-02T12:24:57;5.10;;;4.18;;
6864;SDS011;3471;49.678;8.388;2024-03-02T12:27:23;7.32;;;4.43;;
6864;SDS011;3471;49.678;8.388;2024-03-02T12:29:49;5.13;;;4.25;;
6864;SDS011;3471;49.678;8.388;2024-03-02T12:32:15;6.35;;;3.80;;
6864;SDS011;3471;49.678;8.388;2024-03-02T12:34:41;5.55;;;2.72;;
6864;SDS011;3471;49.678;8.388;2024-03-02T12:37:06;3.30;;;2.57;;
6864;SDS011;3471;49.678;8.388;2024-03-02T12:39:32;3.80;;;2.67;;
6864;SDS011;3471;49.678;8.388;2024-03-02T12:41:57;4.80;;;3.70;;
6864;SDS011;3471;49.678;8.388;2024-03-02T12:44:23;3.30;;;3.00;;
6864;SDS011;3471;49.678;8.388;2024-03-02T12:46:49;4.30;;;2.53;;
6864;SDS011;3471;49.678;8.388;2024-03-02T12:49:15;3.20;;;2.43;;
6864;SDS011;3471;49.678;8.388;2024-03-02T12:51:41;4.45;;;2.53;;
6864;SDS011;3471;49.678;8.388;2024-03-02T12:54:10;2.90;;;2.38;;
6864;SDS011;3471;49.678;8.388;2024-03-02T12:56:36;3.60;;;2.45;;
6864;SDS011;3471;49.678;8.388;2024-03-02T12:59:03;2.70;;;2.10;;
6864;SDS011;3471;49.678;8.388;2024-03-02T13:01:31;3.20;;;2.90;;
6864;SDS011;3471;49.678;8.388;2024-03-02T13:03:58;4.63;;;2.65;;
6864;SDS011;3471;49.678;8.388;2024-03-02T13:06:24;5.82;;;2.70;;
6864;SDS011;3471;49.678;8.388;2024-03-02T13:08:53;2.60;;;2.40;;
6864;SDS011;3471;49.678;8.388;2024-03-02T13:11:18;6.60;;;2.93;;
6864;SDS011;3471;49.678;8.388;2024-03-02T13:13:45;3.67;;;2.58;;
6864;SDS011;3471;49.678;8.388;2024-03-02T13:16:12;3.65;;;1.95;;
6864;SDS011;3471;49.678;8.388;2024-03-02T13:18:38;16.00;;;2.20;;
6864;SDS011;3471;49.678;8.388;2024-03-02T13:21:05;2.50;;;1.98;;
6864;SDS011;3471;49.678;8.388;2024-03-02T13:23:31;3.50;;;2.33;;
6864;SDS011;3471;49.678;8.388;2024-03-02T13:25:57;2.63;;;1.80;;
6864;SDS011;3471;49.678;8.388;2024-03-02T13:28:23;4.75;;;1.88;;
6864;SDS011;3471;49.678;8.388;2024-03-02T13:30:52;2.25;;;1.90;;
6864;SDS011;3471;49.678;8.388;2024-03-02T13:33:18;1.60;;;1.20;;
6864;SDS011;3471;49.678;8.388;2024-03-02T13:35:47;3.10;;;2.00;;
6864;SDS011;3471;49.678;8.388;2024-03-02T13:38:14;2.20;;;1.30;;
6864;SDS011;3471;49.678;8.388;2024-03-02T13:40:41;4.70;;;2.43;;
6864;SDS011;3471;49.678;8.388;2024-03-02T13:43:07;2.20;;;1.30;;
6864;SDS011;3471;49.678;8.388;2024-03-02T13:45:32;1.90;;;1.30;;
6864;SDS011;3471;49.678;8.388;2024-03-02T13:47:58;2.50;;;1.98;;
6864;SDS011;3471;49.678;8.388;2024-03-02T13:50:25;1.80;;;1.30;;
6864;SDS011;3471;49.678;8.388;2024-03-02T13:52:50;5.10;;;2.00;;
6864;SDS011;3471;49.678;8.388;2024-03-02T13:55:16;2.97;;;1.92;;
6864;SDS011;3471;49.678;8.388;2024-03-02T13:57:42;1.60;;;1.10;;
6864;SDS011;3471;49.678;8.388;2024-03-02T14:00:07;5.70;;;2.00;;
6864;SDS011;3471;49.678;8.388;2024-03-02T14:02:35;2.20;;;1.80;;
6864;SDS011;3471;49.678;8.388;2024-03-02T14:05:01;1.50;;;1.10;;
6864;SDS011;3471;49.678;8.388;2024-03-02T14:07:27;1.80;;;1.25;;
6864;SDS011;3471;49.678;8.388;2024-03-02T14:09:53;1.70;;;1.30;;
6864;SDS011;3471;49.678;8.388;2024-03-02T14:12:18;1.73;;;1.07;;
6864;SDS011;3471;49.678;8.388;2024-03-02T14:14:44;2.25;;;1.23;;
6864;SDS011;3471;49.678;8.388;2024-03-02T14:17:09;2.90;;;1.50;;
6864;SDS011;3471;49.678;8.388;2024-03-02T14:19:39;2.40;;;1.03;;
6864;SDS011;3471;49.678;8.388;2024-03-02T14:22:07;3.30;;;1.08;;
6864;SDS011;3471;49.678;8.388;2024-03-02T14:24:32;1.50;;;1.20;;
6864;SDS011;3471;49.678;8.388;2024-03-02T14:26:58;2.00;;;1.33;;
6864;SDS011;3471;49.678;8.388;2024-03-02T14:29:26;2.80;;;1.33;;
6864;SDS011;3471;49.678;8.388;2024-03-02T14:31:52;2.38;;;1.60;;
6864;SDS011;3471;49.678;8.388;2024-03-02T14:34:18;1.77;;;1.47;;
6864;SDS011;3471;49.678;8.388;2024-03-02T14:36:43;2.30;;;1.43;;
6864;SDS011;3471;49.678;8.388;2024-03-02T14:39:09;1.70;;;1.00;;
6864;SDS011;3471;49.678;8.388;2024-03-02T14:41:36;1.90;;;1.25;;
6864;SDS011;3471;49.678;8.388;2024-03-02T14:44:02;1.80;;;1.30;;
6864;SDS011;3471;49.678;8.388;2024-03-02T14:46:28;1.92;;;1.35;;
6864;SDS011;3471;49.678;8.388;2024-03-02T14:48:54;1.50;;;1.00;;
6864;SDS011;3471;49.678;8.388;2024-03-02T14:51:19;2.30;;;2.10;;
6864;SDS011;3471;49.678;8.388;2024-03-02T14:53:45;1.80;;;1.30;;
6864;SDS011;3471;49.678;8.388;2024-03-02T14:56:11;2.20;;;1.30;;
6864;SDS011;3471;49.678;8.388;2024-03-02T14:58:38;1.70;;;1.20;;
6864;SDS011;3471;49.678;8.388;2024-03-02T15:01:04;1.70;;;1.27;;
6864;SDS011;3471;49.678;8.388;2024-03-02T15:03:34;1.70;;;1.20;;